Pleasant Valley, Arkansas
Current Conditions -  °F | °C
As of 5:58 PM on Saturday 25 Oct 2014 (Local Time) from KLRF Reporting Station
Clear Clear  
Wind Chill: 81°   Ceiling: Unl
Heat Index: 83°   Visibility: 10mi
Dew Point: 66°   Wind: 1mph
Humidity: 61%   Direction: 290°WNW
Pressure: 30.02"   Gusts: NA
Location:  35.2494°N, 92.313°W
Report Text: KLRF 252258Z AUTO 29001KT 10SM CLR 27/19 A3002 RMK AO2 SLP167 T02700189
Loading
Personal Weather Stations






























Interactive Weather Map
Tropical Storm Tracking
New forecast layout! Learn more

10-Day Weather Forecast

Advertisements
Track Severe Weather on mobile